Time;durP1;ratioP1;P1;durP2;ratioP2;P2;SDS_P1;SDS_P2;PMS_P1;PMS_P2;Temp;Humidity;BMP_temperature;BMP_pressure;BME280_temperature;BME280_humidity;BME280_pressure;Samples;Min_cycle;Max_cycle;Signal;HPM_P1;HPM_P2
2021/08/27 00:01:47;;;;;;;0.95;0.38;;;;;;;13.28;100.00;100709.63;5032468;28;20183;-78
2021/08/27 00:04:50;;;;;;;1.25;0.93;;;;;;;13.27;100.00;100713.69;5032565;28;20103;-78
2021/08/27 00:07:53;;;;;;;0.60;0.52;;;;;;;13.21;100.00;100713.53;5032233;28;20060;-78
2021/08/27 00:10:55;;;;;;;1.20;0.52;;;;;;;13.22;100.00;100715.09;5032179;28;20057;-78
2021/08/27 00:13:58;;;;;;;2.25;0.85;;;;;;;13.19;100.00;100710.44;5032370;28;20056;-78
2021/08/27 00:17:01;;;;;;;1.48;0.95;;;;;;;13.16;100.00;100711.41;5032578;28;20095;-79
2021/08/27 00:20:06;;;;;;;3.80;1.05;;;;;;;13.15;100.00;100707.03;5032518;28;20597;-79
2021/08/27 00:23:09;;;;;;;0.60;0.60;;;;;;;13.11;100.00;100714.81;5032407;28;20099;-78
2021/08/27 00:26:11;;;;;;;11.85;1.17;;;;;;;13.10;100.00;100716.09;5030339;28;20480;-79
2021/08/27 00:29:14;;;;;;;3.40;0.90;;;;;;;13.15;100.00;100726.63;5021721;28;20080;-79
2021/08/27 00:32:17;;;;;;;1.95;0.40;;;;;;;13.18;100.00;100727.69;5022076;28;20056;-79
2021/08/27 00:35:21;;;;;;;0.63;0.40;;;;;;;13.21;100.00;100727.53;5023028;28;20095;-79
2021/08/27 00:38:24;;;;;;;0.85;0.68;;;;;;;13.24;100.00;100715.41;5023490;28;20056;-79
2021/08/27 00:41:27;;;;;;;2.92;0.65;;;;;;;13.22;100.00;100709.50;5026569;28;20068;-79
2021/08/27 00:44:30;;;;;;;0.85;0.63;;;;;;;13.23;100.00;100708.25;5025314;28;20076;-79
2021/08/27 00:47:33;;;;;;;2.35;0.80;;;;;;;13.16;100.00;100708.59;5026030;28;20324;-78
2021/08/27 00:50:38;;;;;;;2.08;0.93;;;;;;;13.21;100.00;100704.38;5025811;28;20534;-79
2021/08/27 00:53:41;;;;;;;1.08;0.45;;;;;;;13.20;100.00;100709.19;5025646;28;20096;-79
2021/08/27 00:56:44;;;;;;;2.17;0.40;;;;;;;13.22;100.00;100717.13;5036131;28;20057;-79
2021/08/27 00:59:46;;;;;;;0.57;0.43;;;;;;;13.24;100.00;100709.81;5025418;28;20044;-79
2021/08/27 01:02:52;;;;;;;2.10;0.35;;;;;;;13.25;100.00;100711.38;5025130;28;20057;-79
2021/08/27 01:06:13;;;;;;;3.83;0.55;;;;;;;13.25;100.00;100705.78;5025258;28;20056;-79
2021/08/27 01:09:41;;;;;;;3.43;0.77;;;;;;;13.34;100.00;100702.91;5009421;28;20141;-79
2021/08/27 01:13:02;;;;;;;0.60;0.50;;;;;;;13.40;100.00;100703.84;5015670;28;20278;-79
2021/08/27 01:16:25;;;;;;;0.52;0.20;;;;;;;13.46;100.00;100693.53;5015244;28;20107;-79
2021/08/27 01:19:40;;;;;;;1.52;0.47;;;;;;;13.43;100.00;100697.25;5015485;28;20128;-79
2021/08/27 01:23:15;;;;;;;2.35;0.20;;;;;;;13.40;100.00;100695.44;5015494;28;20057;-79
2021/08/27 01:26:22;;;;;;;0.45;0.40;;;;;;;13.37;100.00;100696.38;5015479;28;20049;-79
2021/08/27 01:29:58;;;;;;;0.22;0.20;;;;;;;13.33;100.00;100687.38;5015525;28;20088;-79
2021/08/27 01:33:11;;;;;;;0.85;0.50;;;;;;;13.26;100.00;100687.72;5015619;28;20053;-79
2021/08/27 01:36:15;;;;;;;4.40;0.95;;;;;;;13.28;100.00;100682.44;5015279;28;20052;-79
2021/08/27 01:39:20;;;;;;;3.60;0.90;;;;;;;13.23;100.00;100685.88;5015442;28;20100;-79
2021/08/27 01:42:24;;;;;;;0.35;0.35;;;;;;;13.20;100.00;100686.03;5015170;28;20099;-79
2021/08/27 01:45:28;;;;;;;0.82;0.73;;;;;;;13.23;100.00;100683.06;5014967;28;20072;-79
2021/08/27 01:48:34;;;;;;;0.55;0.30;;;;;;;13.22;100.00;100689.13;5014974;28;20139;-79
2021/08/27 01:51:39;;;;;;;0.30;0.20;;;;;;;13.19;100.00;100679.66;5001963;28;20131;-80
2021/08/27 01:54:42;;;;;;;0.45;0.30;;;;;;;13.19;100.00;100690.09;5015313;28;20546;-81
2021/08/27 01:57:46;;;;;;;1.55;0.70;;;;;;;13.20;100.00;100686.81;5002468;28;20049;-81
2021/08/27 02:00:49;;;;;;;0.10;0.10;;;;;;;13.26;100.00;100693.31;5002424;28;20104;-80
2021/08/27 02:03:53;;;;;;;2.60;0.47;;;;;;;13.21;100.00;100693.19;5014761;28;20435;-81
2021/08/27 02:06:57;;;;;;;3.53;0.57;;;;;;;13.15;100.00;100689.47;5015553;28;20045;-81
2021/08/27 02:10:02;;;;;;;1.00;0.57;;;;;;;13.18;100.00;100686.53;5034353;28;20099;-81
2021/08/27 02:13:05;;;;;;;0.40;0.40;;;;;;;13.22;100.00;100695.50;5033577;28;20415;-81
2021/08/27 02:16:09;;;;;;;1.95;0.55;;;;;;;13.24;100.00;100697.84;5033988;28;20048;-81
2021/08/27 02:19:12;;;;;;;1.02;0.47;;;;;;;13.23;100.00;100696.31;5034182;28;20099;-80
2021/08/27 02:22:17;;;;;;;1.30;0.75;;;;;;;13.15;100.00;100698.66;5021963;28;20094;-80
2021/08/27 02:25:22;;;;;;;2.95;0.82;;;;;;;13.19;100.00;100696.44;5021595;28;20100;-81
2021/08/27 02:28:26;;;;;;;1.67;0.93;;;;;;;13.23;100.00;100699.84;5034096;28;20064;-80
2021/08/27 02:31:30;;;;;;;1.25;0.73;;;;;;;13.15;100.00;100698.66;5034326;28;20522;-82
2021/08/27 02:34:37;;;;;;;0.38;0.38;;;;;;;13.09;100.00;100703.34;5033523;28;20434;-82
2021/08/27 02:37:42;;;;;;;1.23;0.63;;;;;;;13.13;100.00;100703.94;5033819;28;20423;-80
2021/08/27 02:40:45;;;;;;;2.40;1.02;;;;;;;13.16;100.00;100708.59;5033960;28;20514;-81
2021/08/27 02:43:49;;;;;;;2.75;0.77;;;;;;;13.21;100.00;100705.13;5033904;28;20415;-81
2021/08/27 02:46:52;;;;;;;0.90;0.30;;;;;;;13.19;100.00;100702.03;5033783;28;20060;-81
2021/08/27 02:49:55;;;;;;;1.10;0.50;;;;;;;13.23;100.00;100702.66;5034002;28;20590;-81
2021/08/27 02:53:04;;;;;;;3.80;0.88;;;;;;;13.32;100.00;100705.41;5033426;28;20064;-81
2021/08/27 02:56:17;;;;;;;2.28;0.63;;;;;;;13.32;100.00;100694.22;5033402;28;20043;-80
2021/08/27 02:59:22;;;;;;;0.40;0.30;;;;;;;13.25;100.00;100700.19;5033620;28;20048;-79
2021/08/27 03:02:27;;;;;;;0.30;0.30;;;;;;;13.27;100.00;100708.09;5032743;28;20416;-80
2021/08/27 03:05:38;;;;;;;0.50;0.30;;;;;;;13.25;100.00;100705.00;5033029;28;20091;-80
2021/08/27 03:08:48;;;;;;;4.45;0.75;;;;;;;13.21;100.00;100696.75;5033294;28;20099;-81
2021/08/27 03:12:00;;;;;;;0.73;0.47;;;;;;;13.22;100.00;100689.91;5032970;28;20052;-81
2021/08/27 03:15:08;;;;;;;4.00;0.65;;;;;;;13.28;100.00;100698.44;5032967;28;20515;-80
2021/08/27 03:18:22;;;;;;;1.67;1.20;;;;;;;13.25;100.00;100705.78;5033346;28;20052;-81
2021/08/27 03:21:35;;;;;;;1.23;0.93;;;;;;;13.29;100.00;100692.38;5032415;28;20049;-82
2021/08/27 03:24:44;;;;;;;1.50;0.38;;;;;;;13.27;100.00;100697.69;5032065;28;20406;-82
2021/08/27 03:27:53;;;;;;;1.20;1.08;;;;;;;13.27;100.00;100692.09;5020724;28;20076;-83
2021/08/27 03:30:56;;;;;;;1.33;0.47;;;;;;;13.25;100.00;100705.78;5032413;28;20068;-83
2021/08/27 03:34:01;;;;;;;0.50;0.50;;;;;;;13.21;100.00;100705.13;5032355;28;20139;-82
2021/08/27 03:37:06;;;;;;;1.55;0.55;;;;;;;13.21;100.00;100699.53;5020341;28;20129;-82
2021/08/27 03:40:11;;;;;;;1.85;0.60;;;;;;;13.28;100.00;100704.03;5032777;28;20052;-82
2021/08/27 03:43:15;;;;;;;8.68;0.40;;;;;;;13.28;100.00;100704.81;5032868;28;20187;-82
2021/08/27 03:46:19;;;;;;;1.05;0.50;;;;;;;13.30;100.00;100702.31;5032563;28;20103;-82
2021/08/27 03:49:22;;;;;;;1.42;0.30;;;;;;;13.29;100.00;100695.19;5032787;28;20040;-83
2021/08/27 03:52:27;;;;;;;0.32;0.30;;;;;;;13.30;100.00;100702.31;5032198;28;20052;-83
2021/08/27 03:55:31;;;;;;;2.17;0.63;;;;;;;13.27;100.00;100694.88;5031795;28;20044;-82
2021/08/27 03:58:36;;;;;;;0.60;0.60;;;;;;;13.26;100.00;100701.72;5032612;28;20056;-82
2021/08/27 04:01:40;;;;;;;0.43;0.30;;;;;;;13.26;100.00;100701.72;5032427;28;20047;-82
2021/08/27 04:04:43;;;;;;;1.02;0.75;;;;;;;13.26;100.00;100693.31;5032517;28;20056;-81
2021/08/27 04:07:47;;;;;;;2.92;0.80;;;;;;;13.25;100.00;100694.59;5020077;28;20088;-82
2021/08/27 04:10:51;;;;;;;0.30;0.22;;;;;;;13.24;100.00;100693.00;5020074;28;20502;-82
2021/08/27 04:13:53;;;;;;;1.85;0.47;;;;;;;13.22;100.00;100695.50;5032726;28;20096;-81
2021/08/27 04:16:58;;;;;;;1.13;0.75;;;;;;;13.23;100.00;100697.06;5036245;28;20549;-81
2021/08/27 04:20:01;;;;;;;2.00;0.80;;;;;;;13.24;100.00;100693.00;5036837;28;20094;-80
2021/08/27 04:23:04;;;;;;;0.68;0.20;;;;;;;13.20;100.00;100686.81;5036611;28;20571;-81
2021/08/27 04:26:07;;;;;;;0.57;0.20;;;;;;;13.16;100.00;100691.81;5036295;28;20060;-82
2021/08/27 04:29:11;;;;;;;0.98;0.20;;;;;;;13.10;100.00;100693.72;5035465;28;20049;-83
2021/08/27 04:32:14;;;;;;;0.30;0.20;;;;;;;13.11;100.00;100686.88;5035490;28;20087;-81
2021/08/27 04:35:17;;;;;;;0.20;0.20;;;;;;;13.12;100.00;100680.03;5035891;28;20052;-82
2021/08/27 04:38:21;;;;;;;1.27;0.63;;;;;;;13.12;100.00;100691.22;5035971;28;20185;-82
2021/08/27 04:41:24;;;;;;;0.43;0.20;;;;;;;13.12;100.00;100698.84;5036049;28;20104;-82
2021/08/27 04:44:26;;;;;;;1.77;0.45;;;;;;;13.17;100.00;100692.56;5036056;28;20064;-82
2021/08/27 04:47:29;;;;;;;0.20;0.15;;;;;;;13.15;100.00;100695.84;5036131;28;20103;-82
2021/08/27 04:50:32;;;;;;;0.55;0.30;;;;;;;13.19;100.00;100696.44;5035813;28;20482;-82
2021/08/27 04:53:35;;;;;;;1.40;0.30;;;;;;;13.16;100.00;100691.03;5036249;28;20056;-82
2021/08/27 04:56:38;;;;;;;0.20;0.20;;;;;;;13.12;100.00;100690.44;5035663;28;20179;-81
2021/08/27 04:59:45;;;;;;;0.55;0.52;;;;;;;13.08;100.00;100701.78;5035677;28;20045;-81
2021/08/27 05:02:48;;;;;;;1.65;0.30;;;;;;;13.07;100.00;100700.25;5035469;28;20051;-81
2021/08/27 05:05:51;;;;;;;1.05;0.32;;;;;;;13.09;100.00;100706.13;5035597;28;20056;-81
2021/08/27 05:08:54;;;;;;;1.15;0.40;;;;;;;13.15;100.00;100697.88;5035647;28;20099;-81
2021/08/27 05:11:57;;;;;;;1.65;0.50;;;;;;;13.13;100.00;100697.56;5035182;28;20053;-81
2021/08/27 05:15:00;;;;;;;0.20;0.20;;;;;;;13.14;100.00;100697.13;5035775;28;20155;-80
2021/08/27 05:18:03;;;;;;;2.60;0.40;;;;;;;13.18;100.00;100694.13;5035134;28;20072;-81
2021/08/27 05:21:06;;;;;;;0.70;0.50;;;;;;;13.16;100.00;100705.81;5035234;28;20426;-81
2021/08/27 05:24:09;;;;;;;0.22;0.22;;;;;;;13.14;100.00;100715.91;5035077;28;20095;-82
2021/08/27 05:27:12;;;;;;;2.38;0.73;;;;;;;13.13;100.00;100715.13;5034660;28;20072;-81
2021/08/27 05:30:15;;;;;;;1.02;0.63;;;;;;;13.18;100.00;100722.09;5035295;28;20049;-81
2021/08/27 05:33:17;;;;;;;0.82;0.43;;;;;;;13.14;100.00;100721.50;5034606;28;20044;-81
2021/08/27 05:36:20;;;;;;;1.55;0.40;;;;;;;13.15;100.00;100718.22;5035207;28;20049;-81
2021/08/27 05:39:27;;;;;;;1.85;0.55;;;;;;;13.16;100.00;100725.38;5035025;28;20048;-81
2021/08/27 05:42:30;;;;;;;1.30;0.60;;;;;;;13.20;100.00;100725.97;5034649;28;20053;-81
2021/08/27 05:45:33;;;;;;;4.95;0.63;;;;;;;13.24;100.00;100726.59;5034777;28;20080;-81
2021/08/27 05:48:37;;;;;;;0.50;0.43;;;;;;;13.26;100.00;100724.09;5034522;28;20052;-81
2021/08/27 05:51:40;;;;;;;0.70;0.52;;;;;;;13.34;100.00;100722.50;5034864;28;20121;-80
2021/08/27 05:54:43;;;;;;;0.38;0.20;;;;;;;13.39;100.00;100721.84;5035182;28;20052;-77
2021/08/27 05:57:46;;;;;;;0.40;0.40;;;;;;;13.42;100.00;100714.53;5033909;28;20048;-78
2021/08/27 06:00:50;;;;;;;0.45;0.22;;;;;;;13.43;100.00;100716.84;5034513;28;20107;-78
2021/08/27 06:03:53;;;;;;;1.00;0.35;;;;;;;13.47;100.00;100722.28;5034388;28;20183;-78
2021/08/27 06:06:57;;;;;;;1.90;1.17;;;;;;;13.54;100.00;100722.72;5034076;28;20092;-79
2021/08/27 06:10:00;;;;;;;7.32;0.40;;;;;;;13.51;100.00;100728.50;5033839;28;20133;-79
2021/08/27 06:13:03;;;;;;;2.05;0.40;;;;;;;13.55;100.00;100731.88;5033437;28;20139;-79
2021/08/27 06:16:09;;;;;;;0.90;0.40;;;;;;;13.59;100.00;100733.25;5032300;28;20107;-77
2021/08/27 06:19:12;;;;;;;0.30;0.10;;;;;;;13.72;100.00;100740.63;5031292;28;20049;-79
2021/08/27 06:22:16;;;;;;;0.60;0.40;;;;;;;13.73;100.00;100739.41;5030965;28;20605;-79
2021/08/27 06:25:19;;;;;;;1.02;0.90;;;;;;;13.73;100.00;100740.16;5030872;28;20103;-78
2021/08/27 06:28:22;;;;;;;0.30;0.30;;;;;;;13.79;100.00;100754.28;5019271;28;20048;-79
2021/08/27 06:31:25;;;;;;;2.92;0.45;;;;;;;13.78;100.00;100742.31;5031772;28;20076;-79
2021/08/27 06:34:28;;;;;;;17.20;0.63;;;;;;;13.85;100.00;100752.38;5032156;28;20462;-79
2021/08/27 06:40:59;;;;;;;1.92;0.68;;;;;;;13.85;100.00;100750.38;5029533;28;20113;-81
2021/08/27 06:44:03;;;;;;;0.73;0.20;;;;;;;13.95;100.00;100739.84;5029915;28;20114;-79
2021/08/27 06:47:07;;;;;;;0.43;0.30;;;;;;;13.95;100.00;100745.47;5030708;28;20419;-79
2021/08/27 06:50:10;;;;;;;1.42;0.30;;;;;;;13.99;100.00;100746.84;5031118;28;20091;-79
2021/08/27 06:53:14;;;;;;;2.17;0.30;;;;;;;14.05;100.00;100746.97;5018604;28;20498;-79
2021/08/27 06:56:17;;;;;;;1.48;0.40;;;;;;;14.10;100.00;100747.06;5029347;28;20096;-77
2021/08/27 06:59:20;;;;;;;3.50;0.30;;;;;;;14.12;100.00;100755.00;5030678;28;20048;-78
2021/08/27 07:02:22;;;;;;;4.93;0.57;;;;;;;14.17;100.00;100743.13;5032151;28;20490;-78
2021/08/27 07:05:26;;;;;;;0.20;0.10;;;;;;;14.17;100.00;100743.13;5032234;28;20104;-79
2021/08/27 07:08:29;;;;;;;1.42;0.10;;;;;;;14.21;100.00;100744.50;5030317;28;20055;-80
2021/08/27 07:11:32;;;;;;;2.45;1.33;;;;;;;14.35;100.00;100745.81;5030638;28;20060;-79
2021/08/27 07:14:35;;;;;;;1.48;0.20;;;;;;;14.44;100.00;100748.56;5030459;28;20043;-79
2021/08/27 07:17:41;;;;;;;0.57;0.30;;;;;;;14.49;100.00;100739.47;5018671;28;20048;-79
2021/08/27 07:20:44;;;;;;;1.10;0.30;;;;;;;14.53;100.00;100731.63;5018048;28;20072;-78
2021/08/27 07:23:47;;;;;;;1.02;0.20;;;;;;;14.57;100.00;100735.03;5032130;28;20052;-80
2021/08/27 07:26:50;;;;;;;0.20;0.15;;;;;;;14.80;100.00;100741.81;5031442;28;20049;-79
2021/08/27 07:29:53;;;;;;;0.10;0.10;;;;;;;14.88;100.00;100743.75;5032182;28;20048;-78
2021/08/27 07:32:55;;;;;;;1.88;0.43;;;;;;;14.97;100.00;100748.47;5030144;28;20506;-79
2021/08/27 07:35:58;;;;;;;0.20;0.20;;;;;;;15.01;100.00;100741.41;5029987;28;20505;-78
2021/08/27 07:39:01;;;;;;;0.35;0.35;;;;;;;15.01;100.00;100749.84;5017880;28;20182;-79
2021/08/27 07:42:06;;;;;;;0.80;0.55;;;;;;;15.02;100.00;100742.97;5030042;28;20091;-78
2021/08/27 07:45:10;;;;;;;0.10;0.10;;;;;;;15.03;100.00;100755.72;5030539;28;20526;-78
2021/08/27 07:48:15;;;;;;;0.10;0.03;;;;;;;15.01;100.00;100752.63;5028477;28;20048;-80
2021/08/27 07:51:19;;;;;;;0.50;0.20;;;;;;;15.11;100.00;100759.72;5028813;28;20096;-79
2021/08/27 07:54:22;;;;;;;0.63;0.30;;;;;;;15.22;100.00;100755.53;5029775;28;20134;-79
2021/08/27 07:57:25;;;;;;;0.77;0.17;;;;;;;15.27;100.00;100757.66;5029913;28;20103;-79
2021/08/27 08:00:28;;;;;;;0.30;0.30;;;;;;;15.31;100.00;100758.25;5030794;28;20072;-79
2021/08/27 08:03:31;;;;;;;0.10;0.10;;;;;;;15.42;100.00;100759.16;5031699;28;20052;-78
2021/08/27 08:06:38;;;;;;;1.65;0.20;;;;;;;15.53;100.00;100761.41;5031596;28;20092;-79
2021/08/27 08:09:41;;;;;;;2.42;0.60;;;;;;;15.70;100.00;100762.44;5012217;28;20049;-79
2021/08/27 08:12:43;;;;;;;2.42;0.95;;;;;;;15.91;100.00;100761.97;5012162;28;20184;-79
2021/08/27 08:15:46;;;;;;;0.80;0.55;;;;;;;15.92;100.00;100768.34;5011974;28;20048;-78
2021/08/27 08:18:49;;;;;;;5.15;0.47;;;;;;;16.03;100.00;100762.88;5022870;28;20065;-79
2021/08/27 08:21:52;;;;;;;0.55;0.32;;;;;;;16.16;100.00;100759.72;5011938;28;20049;-79
2021/08/27 08:24:55;;;;;;;0.20;0.10;;;;;;;16.25;100.00;100757.53;5011515;28;20088;-79
2021/08/27 08:27:58;;;;;;;4.68;0.20;;;;;;;16.34;100.00;100765.06;5012036;28;20103;-78
2021/08/27 08:31:01;;;;;;;8.68;0.57;;;;;;;16.46;100.00;100764.69;5011883;28;20133;-78
2021/08/27 08:34:04;;;;;;;2.63;0.40;;;;;;;16.48;100.00;100755.78;5011671;28;20112;-79
2021/08/27 08:37:08;;;;;;;0.22;0.22;;;;;;;16.56;100.00;100756.91;5011645;28;20045;-80
2021/08/27 08:40:13;;;;;;;1.75;0.47;;;;;;;16.64;100.00;100760.81;5011678;28;20081;-78
2021/08/27 08:43:18;;;;;;;0.90;0.00;;;;;;;16.68;100.00;100756.53;5011706;28;20049;-78
2021/08/27 08:46:22;;;;;;;1.35;0.20;;;;;;;16.79;100.00;100763.53;5011274;28;20084;-78
2021/08/27 08:49:28;;;;;;;0.43;0.10;;;;;;;16.81;100.00;100758.16;5011842;28;20084;-78
2021/08/27 08:52:34;;;;;;;0.93;0.28;;;;;;;16.77;100.00;100757.63;5011684;28;20045;-78
2021/08/27 08:55:39;;;;;;;0.45;0.22;;;;;;;16.76;100.00;100756.88;5011332;28;20084;-76
2021/08/27 08:58:43;;;;;;;0.20;0.20;;;;;;;16.82;100.00;100756.91;5011619;28;20045;-78
2021/08/27 09:01:46;;;;;;;4.03;0.47;;;;;;;16.77;100.00;100761.22;5013940;28;20048;-78
2021/08/27 09:04:49;;;;;;;0.40;0.10;;;;;;;16.70;100.00;100764.47;5014881;28;20339;-78
2021/08/27 09:07:53;;;;;;;1.98;0.30;;;;;;;16.60;100.00;100761.06;5023627;28;20047;-78
2021/08/27 09:10:56;;;;;;;0.55;0.28;;;;;;;16.56;100.00;100768.94;5022493;28;20044;-78
2021/08/27 09:14:02;;;;;;;0.82;0.22;;;;;;;16.67;100.00;100771.84;5022422;28;20052;-78
2021/08/27 09:17:06;;;;;;;1.80;0.13;;;;;;;16.84;100.00;100769.22;5022130;28;20051;-78
2021/08/27 09:20:12;;;;;;;0.40;0.20;;;;;;;16.89;100.00;100773.34;5034391;28;20071;-78
2021/08/27 09:23:18;;;;;;;1.83;0.52;;;;;;;16.75;100.00;100772.19;5034920;28;20049;-79
2021/08/27 09:26:33;;;;;;;0.63;0.10;;;;;;;16.53;100.00;100778.34;5035219;28;20608;-79
2021/08/27 09:29:43;;;;;;;0.85;0.03;;;;;;;16.47;100.00;100769.06;5035308;28;20048;-79
2021/08/27 09:32:46;;;;;;;0.25;0.20;;;;;;;16.62;100.00;100774.59;5035336;28;20577;-79
2021/08/27 09:35:59;;;;;;;0.75;0.20;;;;;;;16.76;100.00;100784.22;5035004;28;20123;-79
2021/08/27 09:39:10;;;;;;;1.73;0.30;;;;;;;16.77;100.00;100785.75;5035106;28;20052;-79
2021/08/27 09:42:14;;;;;;;8.82;1.75;;;;;;;17.09;100.00;100778.91;5034932;28;20052;-79
2021/08/27 09:45:19;;;;;;;1.02;0.43;;;;;;;17.42;100.00;100784.81;5034748;28;20126;-79
2021/08/27 09:48:23;;;;;;;3.08;0.30;;;;;;;17.70;100.00;100787.84;5035186;28;20125;-79
2021/08/27 09:51:38;;;;;;;1.35;0.60;;;;;;;17.61;100.00;100773.97;5034321;28;20048;-79
2021/08/27 09:54:43;;;;;;;0.43;0.13;;;;;;;17.45;100.00;100773.31;5034941;28;20080;-79
2021/08/27 09:57:46;;;;;;;1.70;0.28;;;;;;;17.34;100.00;100772.47;5034960;28;20107;-79
2021/08/27 10:01:06;;;;;;;0.38;0.20;;;;;;;17.28;100.00;100774.47;5034274;28;20049;-79
2021/08/27 10:04:13;;;;;;;3.10;0.47;;;;;;;17.37;100.00;100772.25;5034712;28;20411;-80
2021/08/27 10:07:32;;;;;;;1.60;0.47;;;;;;;17.46;100.00;100768.47;5021937;28;20052;-78
2021/08/27 10:10:35;;;;;;;3.10;0.60;;;;;;;17.54;100.00;100772.41;5034544;28;20052;-78
2021/08/27 10:13:38;;;;;;;7.07;0.40;;;;;;;17.52;100.00;100772.13;5033395;28;20099;-79
2021/08/27 10:16:43;;;;;;;0.25;0.10;;;;;;;17.42;100.00;100767.91;5033727;28;20072;-78
2021/08/27 10:19:46;;;;;;;0.38;0.13;;;;;;;17.38;100.00;100770.97;5035143;28;20498;-78
2021/08/27 10:22:49;;;;;;;0.20;0.10;;;;;;;17.33;100.00;100776.56;5034053;28;20502;-78
2021/08/27 10:25:52;;;;;;;0.35;0.28;;;;;;;17.39;100.00;100780.94;5033714;28;20091;-78
2021/08/27 10:28:55;;;;;;;1.38;0.10;;;;;;;17.48;100.00;100782.06;5021622;28;20399;-79
2021/08/27 10:31:58;;;;;;;0.90;0.35;;;;;;;17.54;100.00;100775.22;5032549;28;20124;-76
2021/08/27 10:35:02;;;;;;;1.65;0.35;;;;;;;17.76;100.00;100780.97;5033032;28;20163;-76
2021/08/27 10:38:04;;;;;;;0.85;0.28;;;;;;;17.98;100.00;100786.75;5029783;28;20125;-76
2021/08/27 10:41:19;;;;;;;0.73;0.28;;;;;;;18.30;100.00;100776.13;5013108;28;20048;-76
2021/08/27 10:44:48;;;;;;;0.68;0.10;;;;;;;18.58;100.00;100774.22;5023801;28;20100;-76
2021/08/27 10:48:16;;;;;;;0.10;0.00;;;;;;;18.53;100.00;100774.19;5013726;28;20069;-76
2021/08/27 10:51:29;;;;;;;0.47;0.10;;;;;;;18.19;100.00;100788.13;5012589;28;20506;-76
2021/08/27 10:55:12;;;;;;;0.45;0.03;;;;;;;17.90;100.00;100774.41;5013020;28;20064;-76
2021/08/27 10:58:17;;;;;;;0.50;0.10;;;;;;;17.79;100.00;100780.00;5013989;28;20190;-75
2021/08/27 11:01:32;;;;;;;1.35;0.20;;;;;;;17.87;100.00;100766.97;5013831;28;20121;-76
2021/08/27 11:04:42;;;;;;;1.02;0.25;;;;;;;18.12;100.00;100773.75;5014004;28;20048;-75
2021/08/27 11:07:45;;;;;;;1.50;0.22;;;;;;;18.34;100.00;100781.56;5020637;28;20055;-76
2021/08/27 11:11:07;;;;;;;2.05;0.43;;;;;;;18.57;100.00;100780.38;5021257;28;20052;-76
2021/08/27 11:14:21;;;;;;;0.75;0.32;;;;;;;18.61;100.00;100764.75;5033510;28;20056;-76
2021/08/27 11:17:24;;;;;;;0.70;0.38;;;;;;;18.85;100.00;100773.50;5033237;28;20129;-76
2021/08/27 11:20:30;;;;;;;1.45;0.20;;;;;;;18.77;100.00;100766.06;5033313;28;20048;-76
2021/08/27 11:23:51;;;;;;;0.00;0.00;;;;;;;18.43;100.00;100775.69;5032578;28;20383;-75
2021/08/27 11:27:03;;;;;;;1.10;0.55;;;;;;;17.94;100.00;100783.41;5032508;28;20510;-76
2021/08/27 11:30:29;;;;;;;5.38;0.47;;;;;;;17.74;100.00;100782.75;5033191;28;20466;-76
2021/08/27 11:33:41;;;;;;;0.10;0.10;;;;;;;17.89;100.00;100772.09;5033040;28;20510;-76
2021/08/27 11:36:49;;;;;;;0.45;0.38;;;;;;;18.26;100.00;100775.59;5032895;28;20129;-76
2021/08/27 11:39:52;;;;;;;0.15;0.10;;;;;;;18.57;100.00;100769.88;5033510;28;20052;-76
2021/08/27 11:42:56;;;;;;;0.10;0.00;;;;;;;18.82;100.00;100765.28;5032955;28;20100;-75
2021/08/27 11:46:00;;;;;;;0.10;0.10;;;;;;;19.05;100.00;100768.91;5032840;28;20552;-76
2021/08/27 11:49:34;;;;;;;1.27;0.22;;;;;;;19.14;100.00;100769.44;5020884;28;20056;-76
2021/08/27 11:52:37;;;;;;;0.70;0.10;;;;;;;19.16;100.00;100775.34;5031777;28;20056;-75
2021/08/27 11:55:45;;;;;;;4.63;0.20;;;;;;;19.34;100.00;100768.41;5032724;28;20052;-76
2021/08/27 11:58:48;;;;;;;0.98;0.10;;;;;;;19.62;100.00;100755.81;5032668;28;20573;-76
2021/08/27 12:01:55;;;;;;;1.55;0.10;;;;;;;19.56;100.00;100757.09;5032955;28;20171;-76
2021/08/27 12:05:00;;;;;;;0.10;0.10;;;;;;;19.35;100.00;100764.31;5032897;28;20056;-76
2021/08/27 12:08:12;;;;;;;0.32;0.10;;;;;;;19.24;100.00;100755.81;5031997;28;20541;-76
2021/08/27 12:11:30;;;;;;;;;;;;;;;19.18;100.00;100755.84;5032924;28;20044;-76
2021/08/27 12:14:48;;;;;;;0.17;0.10;;;;;;;18.83;100.00;100752.72;5032828;28;19940;-77
2021/08/27 12:18:01;;;;;;;0.20;0.10;;;;;;;18.81;100.00;100749.66;5032608;28;20537;-76
2021/08/27 12:21:05;;;;;;;0.25;0.10;;;;;;;18.98;100.00;100750.44;5043758;28;20061;-75
2021/08/27 12:24:09;;;;;;;1.70;0.30;;;;;;;19.21;100.00;100749.16;5032378;28;20191;-76
2021/08/27 12:27:12;;;;;;;2.13;0.10;;;;;;;19.34;100.00;100754.28;5042511;28;20506;-76
2021/08/27 12:30:17;;;;;;;0.75;0.10;;;;;;;18.96;100.00;100761.47;5032629;28;20056;-76
2021/08/27 12:33:21;;;;;;;0.20;0.10;;;;;;;19.44;100.00;100756.38;5031023;28;20091;-76
2021/08/27 12:36:24;;;;;;;0.65;0.17;;;;;;;18.64;100.00;100758.09;5033789;28;20080;-76
2021/08/27 12:39:27;;;;;;;0.22;0.00;;;;;;;19.16;100.00;100747.13;5036464;28;20107;-76
2021/08/27 12:42:30;;;;;;;0.25;0.10;;;;;;;18.44;100.00;100760.28;5035938;28;20053;-76
2021/08/27 12:45:46;;;;;;;3.45;0.20;;;;;;;18.86;100.00;100758.09;5035978;28;20053;-76
2021/08/27 12:48:49;;;;;;;1.13;0.55;;;;;;;18.41;100.00;100766.97;5042654;28;20183;-81
2021/08/27 12:51:58;;;;;;;0.63;0.10;;;;;;;17.85;100.00;100766.69;5056132;28;20052;-78
2021/08/27 12:55:01;;;;;;;0.10;0.10;;;;;;;18.41;100.00;100766.97;5055561;28;20585;-76
2021/08/27 12:58:05;;;;;;;0.63;0.30;;;;;;;18.85;100.00;100769.91;5055146;28;20101;-75
2021/08/27 13:01:25;;;;;;;0.60;0.10;;;;;;;18.71;100.00;100770.94;5055181;28;20056;-75
2021/08/27 13:04:42;;;;;;;1.48;0.35;;;;;;;18.91;100.00;100765.03;5054307;28;20410;-75
2021/08/27 13:07:45;;;;;;;0.10;0.00;;;;;;;19.12;100.00;100772.00;5039760;28;20129;-78
2021/08/27 13:11:05;;;;;;;0.13;0.03;;;;;;;18.29;100.00;100768.97;5014178;28;20064;-77
2021/08/27 13:14:36;;;;;;;0.20;0.10;;;;;;;18.01;100.00;100768.84;5015292;28;20045;-78
2021/08/27 13:17:39;;;;;;;0.60;0.30;;;;;;;17.83;100.00;100766.44;5014027;28;22317;-78
2021/08/27 13:20:49;;;;;;;0.82;0.10;;;;;;;17.67;100.00;100778.34;5014542;28;20420;-78
2021/08/27 13:24:08;;;;;;;1.33;0.28;;;;;;;17.64;100.00;100781.41;5014109;28;20056;-79
2021/08/27 13:27:11;;;;;;;0.80;0.20;;;;;;;17.81;100.00;100771.81;5014652;28;20057;-79
2021/08/27 13:30:15;;;;;;;0.20;0.10;;;;;;;17.94;100.00;100774.94;5014949;28;20474;-79
2021/08/27 13:33:19;;;;;;;1.65;0.30;;;;;;;18.71;100.00;100774.50;5013582;28;20061;-80
2021/08/27 13:36:23;;;;;;;0.43;0.10;;;;;;;20.23;100.00;100764.16;5012610;28;20065;-79
2021/08/27 13:39:26;;;;;;;1.10;0.10;;;;;;;19.29;100.00;100761.50;5014366;28;20053;-80
2021/08/27 13:42:29;;;;;;;1.45;0.63;;;;;;;19.41;100.00;100760.22;5014182;28;20052;-79
2021/08/27 13:45:32;;;;;;;0.20;0.10;;;;;;;18.99;100.00;100771.75;5013711;28;20100;-80
2021/08/27 13:48:35;;;;;;;0.80;0.00;;;;;;;20.16;100.00;100758.25;5014076;28;20519;-79
2021/08/27 13:51:38;;;;;;;1.30;0.30;;;;;;;20.01;100.00;100757.78;5013927;28;20100;-80
2021/08/27 13:54:41;;;;;;;0.98;0.20;;;;;;;19.89;100.00;100761.94;5014171;28;20099;-80
2021/08/27 13:57:45;;;;;;;1.35;0.40;;;;;;;19.00;100.00;100755.56;5013392;28;20100;-78
2021/08/27 14:00:48;;;;;;;0.98;0.10;;;;;;;18.62;100.00;100766.28;5013797;28;20404;-78
2021/08/27 14:03:51;;;;;;;0.30;0.20;;;;;;;18.93;100.00;100756.84;5014450;28;20044;-79
2021/08/27 14:06:54;;;;;;;1.73;0.32;;;;;;;18.87;100.00;100756.84;5014292;28;20407;-79
2021/08/27 14:09:57;;;;;;;3.25;0.55;;;;;;;17.99;100.00;100762.94;5033331;28;20048;-79
2021/08/27 14:12:59;;;;;;;2.42;0.20;;;;;;;17.81;100.00;100768.22;5033516;28;20458;-79
2021/08/27 14:16:03;;;;;;;1.52;0.60;;;;;;;17.73;100.00;100765.09;5033093;28;20068;-79
2021/08/27 14:19:05;;;;;;;1.13;0.55;;;;;;;17.70;100.00;100762.50;5032894;28;20095;-79